sensor_id;sensor_type;location;lat;lon;timestamp;P1;durP1;ratioP1;P2;durP2;ratioP2
44696;SDS011;57264;47.480;19.354;2023-03-24T00:02:16;15.50;;;11.40;;
44696;SDS011;57264;47.480;19.354;2023-03-24T00:04:42;18.77;;;11.85;;
44696;SDS011;57264;47.480;19.354;2023-03-24T00:07:09;15.13;;;12.20;;
44696;SDS011;57264;47.480;19.354;2023-03-24T00:09:39;15.32;;;11.25;;
44696;SDS011;57264;47.480;19.354;2023-03-24T00:12:06;12.68;;;11.25;;
44696;SDS011;57264;47.480;19.354;2023-03-24T00:14:33;14.57;;;10.68;;
44696;SDS011;57264;47.480;19.354;2023-03-24T00:16:59;14.23;;;11.35;;
44696;SDS011;57264;47.480;19.354;2023-03-24T00:19:25;13.88;;;11.05;;
44696;SDS011;57264;47.480;19.354;2023-03-24T00:21:51;14.03;;;11.07;;
44696;SDS011;57264;47.480;19.354;2023-03-24T00:24:19;15.63;;;12.30;;
44696;SDS011;57264;47.480;19.354;2023-03-24T00:26:46;15.27;;;11.57;;
44696;SDS011;57264;47.480;19.354;2023-03-24T00:29:12;16.98;;;12.82;;
44696;SDS011;57264;47.480;19.354;2023-03-24T00:31:38;20.33;;;12.23;;
44696;SDS011;57264;47.480;19.354;2023-03-24T00:34:05;14.63;;;11.70;;
44696;SDS011;57264;47.480;19.354;2023-03-24T00:36:33;14.77;;;12.23;;
44696;SDS011;57264;47.480;19.354;2023-03-24T00:38:59;20.02;;;12.77;;
44696;SDS011;57264;47.480;19.354;2023-03-24T00:41:24;15.90;;;12.63;;
44696;SDS011;57264;47.480;19.354;2023-03-24T00:43:53;17.35;;;12.18;;
44696;SDS011;57264;47.480;19.354;2023-03-24T00:46:24;19.23;;;11.55;;
44696;SDS011;57264;47.480;19.354;2023-03-24T00:48:56;18.00;;;11.80;;
44696;SDS011;57264;47.480;19.354;2023-03-24T00:51:36;14.32;;;11.73;;
44696;SDS011;57264;47.480;19.354;2023-03-24T00:54:04;13.75;;;11.52;;
44696;SDS011;57264;47.480;19.354;2023-03-24T00:56:32;15.40;;;12.10;;
44696;SDS011;57264;47.480;19.354;2023-03-24T00:58:58;14.07;;;11.38;;
44696;SDS011;57264;47.480;19.354;2023-03-24T01:01:26;17.67;;;11.95;;
44696;SDS011;57264;47.480;19.354;2023-03-24T01:04:58;15.60;;;11.65;;
44696;SDS011;57264;47.480;19.354;2023-03-24T01:07:26;17.73;;;12.43;;
44696;SDS011;57264;47.480;19.354;2023-03-24T01:09:54;16.13;;;12.07;;
44696;SDS011;57264;47.480;19.354;2023-03-24T01:12:25;19.00;;;12.07;;
44696;SDS011;57264;47.480;19.354;2023-03-24T01:14:53;16.17;;;12.13;;
44696;SDS011;57264;47.480;19.354;2023-03-24T01:17:19;13.57;;;11.45;;
44696;SDS011;57264;47.480;19.354;2023-03-24T01:19:53;15.07;;;11.75;;
44696;SDS011;57264;47.480;19.354;2023-03-24T01:22:19;16.88;;;11.98;;
44696;SDS011;57264;47.480;19.354;2023-03-24T01:24:46;17.17;;;12.25;;
44696;SDS011;57264;47.480;19.354;2023-03-24T01:27:13;15.75;;;12.52;;
44696;SDS011;57264;47.480;19.354;2023-03-24T01:29:39;15.73;;;11.83;;
44696;SDS011;57264;47.480;19.354;2023-03-24T01:32:04;17.20;;;12.27;;
44696;SDS011;57264;47.480;19.354;2023-03-24T01:34:31;17.92;;;12.27;;
44696;SDS011;57264;47.480;19.354;2023-03-24T01:36:57;18.40;;;12.20;;
44696;SDS011;57264;47.480;19.354;2023-03-24T01:39:23;17.85;;;12.82;;
44696;SDS011;57264;47.480;19.354;2023-03-24T01:41:49;15.50;;;11.73;;
44696;SDS011;57264;47.480;19.354;2023-03-24T01:47:00;16.15;;;12.45;;
44696;SDS011;57264;47.480;19.354;2023-03-24T01:49:30;14.35;;;11.73;;
44696;SDS011;57264;47.480;19.354;2023-03-24T01:52:14;18.83;;;11.88;;
44696;SDS011;57264;47.480;19.354;2023-03-24T01:54:46;15.00;;;11.93;;
44696;SDS011;57264;47.480;19.354;2023-03-24T01:57:23;14.43;;;11.90;;
44696;SDS011;57264;47.480;19.354;2023-03-24T01:59:54;16.45;;;11.00;;
44696;SDS011;57264;47.480;19.354;2023-03-24T02:02:23;14.30;;;11.13;;
44696;SDS011;57264;47.480;19.354;2023-03-24T02:04:54;17.27;;;12.30;;
44696;SDS011;57264;47.480;19.354;2023-03-24T02:10:30;15.20;;;11.68;;
44696;SDS011;57264;47.480;19.354;2023-03-24T02:12:58;15.90;;;11.05;;
44696;SDS011;57264;47.480;19.354;2023-03-24T02:15:24;15.00;;;11.17;;
44696;SDS011;57264;47.480;19.354;2023-03-24T02:41:21;15.82;;;11.93;;
44696;SDS011;57264;47.480;19.354;2023-03-24T02:43:49;14.65;;;11.60;;
44696;SDS011;57264;47.480;19.354;2023-03-24T02:46:43;14.43;;;11.38;;
44696;SDS011;57264;47.480;19.354;2023-03-24T02:57:20;14.68;;;11.30;;
44696;SDS011;57264;47.480;19.354;2023-03-24T02:59:58;15.43;;;12.18;;
44696;SDS011;57264;47.480;19.354;2023-03-24T03:02:32;13.88;;;10.82;;
44696;SDS011;57264;47.480;19.354;2023-03-24T03:05:07;15.60;;;12.73;;
44696;SDS011;57264;47.480;19.354;2023-03-24T03:07:38;16.58;;;12.27;;
44696;SDS011;57264;47.480;19.354;2023-03-24T03:12:32;15.17;;;12.20;;
44696;SDS011;57264;47.480;19.354;2023-03-24T03:15:03;17.05;;;12.60;;
44696;SDS011;57264;47.480;19.354;2023-03-24T03:17:34;19.17;;;12.80;;
44696;SDS011;57264;47.480;19.354;2023-03-24T03:20:12;15.00;;;11.88;;
44696;SDS011;57264;47.480;19.354;2023-03-24T03:22:58;19.75;;;12.80;;
44696;SDS011;57264;47.480;19.354;2023-03-24T03:25:29;18.48;;;13.30;;
44696;SDS011;57264;47.480;19.354;2023-03-24T03:28:03;17.85;;;13.05;;
44696;SDS011;57264;47.480;19.354;2023-03-24T03:30:38;15.55;;;12.93;;
44696;SDS011;57264;47.480;19.354;2023-03-24T03:33:11;18.63;;;13.55;;
44696;SDS011;57264;47.480;19.354;2023-03-24T03:35:44;22.90;;;12.82;;
44696;SDS011;57264;47.480;19.354;2023-03-24T03:40:59;19.88;;;13.00;;
44696;SDS011;57264;47.480;19.354;2023-03-24T03:43:27;17.95;;;12.77;;
44696;SDS011;57264;47.480;19.354;2023-03-24T03:45:54;16.70;;;13.07;;
44696;SDS011;57264;47.480;19.354;2023-03-24T03:48:20;15.70;;;12.70;;
44696;SDS011;57264;47.480;19.354;2023-03-24T03:50:50;16.42;;;12.25;;
44696;SDS011;57264;47.480;19.354;2023-03-24T03:53:17;15.60;;;12.55;;
44696;SDS011;57264;47.480;19.354;2023-03-24T03:55:47;15.98;;;12.27;;
44696;SDS011;57264;47.480;19.354;2023-03-24T03:58:13;18.87;;;13.40;;
44696;SDS011;57264;47.480;19.354;2023-03-24T04:00:39;14.63;;;12.27;;
44696;SDS011;57264;47.480;19.354;2023-03-24T04:09:14;17.45;;;12.30;;
44696;SDS011;57264;47.480;19.354;2023-03-24T04:22:47;17.30;;;12.55;;
44696;SDS011;57264;47.480;19.354;2023-03-24T04:25:34;27.80;;;13.05;;
44696;SDS011;57264;47.480;19.354;2023-03-24T04:28:15;18.20;;;13.02;;
44696;SDS011;57264;47.480;19.354;2023-03-24T04:33:59;22.30;;;13.70;;
44696;SDS011;57264;47.480;19.354;2023-03-24T04:39:37;17.05;;;13.25;;
44696;SDS011;57264;47.480;19.354;2023-03-24T04:42:09;16.83;;;12.88;;
44696;SDS011;57264;47.480;19.354;2023-03-24T04:44:40;16.60;;;13.15;;
44696;SDS011;57264;47.480;19.354;2023-03-24T04:47:06;16.65;;;12.82;;
44696;SDS011;57264;47.480;19.354;2023-03-24T04:49:37;19.00;;;13.48;;
44696;SDS011;57264;47.480;19.354;2023-03-24T04:52:04;17.65;;;13.88;;
44696;SDS011;57264;47.480;19.354;2023-03-24T04:54:32;32.40;;;14.68;;
44696;SDS011;57264;47.480;19.354;2023-03-24T04:56:58;18.50;;;13.52;;
44696;SDS011;57264;47.480;19.354;2023-03-24T04:59:28;18.65;;;13.27;;
44696;SDS011;57264;47.480;19.354;2023-03-24T05:01:58;20.17;;;13.13;;
44696;SDS011;57264;47.480;19.354;2023-03-24T05:04:25;16.25;;;12.93;;
44696;SDS011;57264;47.480;19.354;2023-03-24T05:06:52;15.80;;;13.27;;
44696;SDS011;57264;47.480;19.354;2023-03-24T05:09:18;21.20;;;13.83;;
44696;SDS011;57264;47.480;19.354;2023-03-24T05:11:46;19.05;;;13.32;;
44696;SDS011;57264;47.480;19.354;2023-03-24T05:14:12;21.52;;;13.27;;
44696;SDS011;57264;47.480;19.354;2023-03-24T05:16:38;17.10;;;13.30;;
44696;SDS011;57264;47.480;19.354;2023-03-24T05:19:04;16.50;;;12.70;;
44696;SDS011;57264;47.480;19.354;2023-03-24T05:21:29;19.90;;;13.70;;
44696;SDS011;57264;47.480;19.354;2023-03-24T05:23:55;17.30;;;12.53;;
44696;SDS011;57264;47.480;19.354;2023-03-24T05:26:21;17.43;;;12.53;;
44696;SDS011;57264;47.480;19.354;2023-03-24T05:28:47;16.27;;;13.00;;
44696;SDS011;57264;47.480;19.354;2023-03-24T05:31:12;21.00;;;13.97;;
44696;SDS011;57264;47.480;19.354;2023-03-24T05:33:38;23.53;;;12.90;;
44696;SDS011;57264;47.480;19.354;2023-03-24T05:36:03;23.37;;;12.47;;
44696;SDS011;57264;47.480;19.354;2023-03-24T05:38:29;25.73;;;13.67;;
44696;SDS011;57264;47.480;19.354;2023-03-24T05:40:56;23.20;;;13.47;;
44696;SDS011;57264;47.480;19.354;2023-03-24T05:43:22;18.83;;;12.27;;
44696;SDS011;57264;47.480;19.354;2023-03-24T05:45:48;17.00;;;12.20;;
44696;SDS011;57264;47.480;19.354;2023-03-24T05:48:14;17.67;;;12.47;;
44696;SDS011;57264;47.480;19.354;2023-03-24T05:50:39;16.20;;;12.20;;
44696;SDS011;57264;47.480;19.354;2023-03-24T05:53:05;23.83;;;12.33;;
44696;SDS011;57264;47.480;19.354;2023-03-24T05:55:31;18.83;;;12.70;;
44696;SDS011;57264;47.480;19.354;2023-03-24T05:57:57;17.40;;;12.13;;
44696;SDS011;57264;47.480;19.354;2023-03-24T06:00:29;15.98;;;12.50;;
44696;SDS011;57264;47.480;19.354;2023-03-24T06:02:56;18.67;;;12.02;;
44696;SDS011;57264;47.480;19.354;2023-03-24T06:05:23;27.05;;;12.73;;
44696;SDS011;57264;47.480;19.354;2023-03-24T06:07:49;18.83;;;12.43;;
44696;SDS011;57264;47.480;19.354;2023-03-24T06:10:14;17.30;;;11.93;;
44696;SDS011;57264;47.480;19.354;2023-03-24T06:12:42;19.02;;;13.20;;
44696;SDS011;57264;47.480;19.354;2023-03-24T06:15:10;17.23;;;11.00;;
44696;SDS011;57264;47.480;19.354;2023-03-24T06:17:36;19.47;;;12.33;;
44696;SDS011;57264;47.480;19.354;2023-03-24T06:20:04;14.80;;;11.10;;
44696;SDS011;57264;47.480;19.354;2023-03-24T06:22:37;17.93;;;11.10;;
44696;SDS011;57264;47.480;19.354;2023-03-24T06:25:03;17.37;;;11.27;;
44696;SDS011;57264;47.480;19.354;2023-03-24T06:27:29;33.87;;;11.63;;
44696;SDS011;57264;47.480;19.354;2023-03-24T06:29:55;27.37;;;11.50;;
44696;SDS011;57264;47.480;19.354;2023-03-24T06:32:21;14.60;;;10.83;;
44696;SDS011;57264;47.480;19.354;2023-03-24T06:34:49;14.83;;;10.93;;
44696;SDS011;57264;47.480;19.354;2023-03-24T06:37:15;24.07;;;11.17;;
44696;SDS011;57264;47.480;19.354;2023-03-24T06:39:40;15.00;;;11.43;;
44696;SDS011;57264;47.480;19.354;2023-03-24T06:42:06;14.13;;;10.73;;
44696;SDS011;57264;47.480;19.354;2023-03-24T06:44:32;18.40;;;11.40;;
44696;SDS011;57264;47.480;19.354;2023-03-24T06:46:58;13.47;;;10.17;;
44696;SDS011;57264;47.480;19.354;2023-03-24T06:49:23;19.43;;;11.30;;
44696;SDS011;57264;47.480;19.354;2023-03-24T06:51:49;13.73;;;11.17;;
44696;SDS011;57264;47.480;19.354;2023-03-24T06:54:15;17.33;;;12.23;;
44696;SDS011;57264;47.480;19.354;2023-03-24T06:56:41;18.70;;;11.93;;
44696;SDS011;57264;47.480;19.354;2023-03-24T06:59:07;15.13;;;12.03;;
44696;SDS011;57264;47.480;19.354;2023-03-24T07:01:33;87.80;;;15.30;;
44696;SDS011;57264;47.480;19.354;2023-03-24T07:04:00;17.80;;;12.50;;
44696;SDS011;57264;47.480;19.354;2023-03-24T07:06:26;18.50;;;12.07;;
44696;SDS011;57264;47.480;19.354;2023-03-24T07:08:54;27.77;;;13.07;;
44696;SDS011;57264;47.480;19.354;2023-03-24T07:11:20;18.37;;;11.00;;
44696;SDS011;57264;47.480;19.354;2023-03-24T07:13:45;15.73;;;11.20;;
44696;SDS011;57264;47.480;19.354;2023-03-24T07:16:11;17.70;;;12.13;;
44696;SDS011;57264;47.480;19.354;2023-03-24T07:18:37;16.40;;;11.97;;
44696;SDS011;57264;47.480;19.354;2023-03-24T07:21:02;22.70;;;11.73;;
44696;SDS011;57264;47.480;19.354;2023-03-24T07:23:28;15.27;;;11.33;;
44696;SDS011;57264;47.480;19.354;2023-03-24T07:25:54;14.77;;;11.07;;
44696;SDS011;57264;47.480;19.354;2023-03-24T07:28:20;14.90;;;11.33;;
44696;SDS011;57264;47.480;19.354;2023-03-24T07:30:46;13.77;;;11.37;;
44696;SDS011;57264;47.480;19.354;2023-03-24T07:33:11;15.27;;;11.73;;
44696;SDS011;57264;47.480;19.354;2023-03-24T07:35:38;21.60;;;10.50;;
44696;SDS011;57264;47.480;19.354;2023-03-24T07:38:04;17.57;;;10.97;;
44696;SDS011;57264;47.480;19.354;2023-03-24T07:40:29;16.13;;;10.80;;
44696;SDS011;57264;47.480;19.354;2023-03-24T07:42:58;21.80;;;11.40;;
44696;SDS011;57264;47.480;19.354;2023-03-24T07:45:25;12.20;;;9.53;;
44696;SDS011;57264;47.480;19.354;2023-03-24T07:47:52;18.10;;;11.13;;
44696;SDS011;57264;47.480;19.354;2023-03-24T07:50:18;15.13;;;11.03;;
44696;SDS011;57264;47.480;19.354;2023-03-24T07:52:47;11.87;;;9.57;;
44696;SDS011;57264;47.480;19.354;2023-03-24T07:55:14;17.27;;;11.33;;
44696;SDS011;57264;47.480;19.354;2023-03-24T07:57:46;14.20;;;10.07;;
44696;SDS011;57264;47.480;19.354;2023-03-24T08:00:13;17.30;;;10.93;;
44696;SDS011;57264;47.480;19.354;2023-03-24T08:02:43;13.60;;;9.50;;
44696;SDS011;57264;47.480;19.354;2023-03-24T08:05:10;12.77;;;9.20;;
44696;SDS011;57264;47.480;19.354;2023-03-24T08:07:41;14.77;;;9.13;;
44696;SDS011;57264;47.480;19.354;2023-03-24T08:10:12;13.63;;;9.27;;
44696;SDS011;57264;47.480;19.354;2023-03-24T08:12:39;13.38;;;8.57;;
44696;SDS011;57264;47.480;19.354;2023-03-24T08:15:06;8.97;;;7.80;;
44696;SDS011;57264;47.480;19.354;2023-03-24T08:17:33;12.03;;;8.97;;
44696;SDS011;57264;47.480;19.354;2023-03-24T08:19:59;9.73;;;7.53;;
44696;SDS011;57264;47.480;19.354;2023-03-24T08:22:26;13.70;;;6.93;;
44696;SDS011;57264;47.480;19.354;2023-03-24T08:24:52;9.87;;;7.80;;
44696;SDS011;57264;47.480;19.354;2023-03-24T08:27:17;13.03;;;8.03;;
44696;SDS011;57264;47.480;19.354;2023-03-24T08:29:43;11.80;;;8.83;;
44696;SDS011;57264;47.480;19.354;2023-03-24T08:32:08;12.77;;;9.23;;
44696;SDS011;57264;47.480;19.354;2023-03-24T08:34:34;13.40;;;8.73;;
44696;SDS011;57264;47.480;19.354;2023-03-24T08:36:59;14.47;;;8.53;;
44696;SDS011;57264;47.480;19.354;2023-03-24T08:39:26;12.80;;;8.00;;
44696;SDS011;57264;47.480;19.354;2023-03-24T08:42:02;25.90;;;9.70;;
44696;SDS011;57264;47.480;19.354;2023-03-24T08:44:28;11.50;;;9.40;;
44696;SDS011;57264;47.480;19.354;2023-03-24T08:46:53;15.33;;;10.67;;
44696;SDS011;57264;47.480;19.354;2023-03-24T08:49:19;17.10;;;10.37;;
44696;SDS011;57264;47.480;19.354;2023-03-24T08:51:45;14.10;;;10.60;;
44696;SDS011;57264;47.480;19.354;2023-03-24T08:54:11;13.53;;;11.03;;
44696;SDS011;57264;47.480;19.354;2023-03-24T08:56:38;16.20;;;11.87;;
44696;SDS011;57264;47.480;19.354;2023-03-24T08:59:04;20.10;;;12.60;;
44696;SDS011;57264;47.480;19.354;2023-03-24T09:01:31;15.33;;;11.27;;
44696;SDS011;57264;47.480;19.354;2023-03-24T09:03:58;18.87;;;11.13;;
44696;SDS011;57264;47.480;19.354;2023-03-24T09:06:30;21.38;;;11.90;;
44696;SDS011;57264;47.480;19.354;2023-03-24T09:08:56;20.43;;;12.33;;
44696;SDS011;57264;47.480;19.354;2023-03-24T09:11:22;20.20;;;11.67;;
44696;SDS011;57264;47.480;19.354;2023-03-24T09:13:48;18.13;;;11.67;;
44696;SDS011;57264;47.480;19.354;2023-03-24T09:16:14;19.63;;;11.23;;
44696;SDS011;57264;47.480;19.354;2023-03-24T09:18:41;17.67;;;10.13;;
44696;SDS011;57264;47.480;19.354;2023-03-24T09:21:07;16.00;;;9.17;;
44696;SDS011;57264;47.480;19.354;2023-03-24T09:23:33;11.77;;;6.50;;
44696;SDS011;57264;47.480;19.354;2023-03-24T09:25:59;7.80;;;5.97;;
44696;SDS011;57264;47.480;19.354;2023-03-24T09:28:32;8.67;;;5.30;;
44696;SDS011;57264;47.480;19.354;2023-03-24T09:31:05;8.90;;;5.47;;
44696;SDS011;57264;47.480;19.354;2023-03-24T09:33:42;10.10;;;5.57;;
44696;SDS011;57264;47.480;19.354;2023-03-24T09:36:18;10.70;;;4.97;;
44696;SDS011;57264;47.480;19.354;2023-03-24T09:41:45;33.97;;;5.47;;
44696;SDS011;57264;47.480;19.354;2023-03-24T09:44:32;7.40;;;4.63;;
44696;SDS011;57264;47.480;19.354;2023-03-24T09:50:02;11.45;;;5.18;;
44696;SDS011;57264;47.480;19.354;2023-03-24T09:52:47;9.13;;;4.43;;
44696;SDS011;57264;47.480;19.354;2023-03-24T09:55:25;6.93;;;4.40;;
44696;SDS011;57264;47.480;19.354;2023-03-24T09:58:02;18.17;;;9.40;;
44696;SDS011;57264;47.480;19.354;2023-03-24T10:00:32;10.10;;;5.80;;
44696;SDS011;57264;47.480;19.354;2023-03-24T10:02:59;10.57;;;5.93;;
44696;SDS011;57264;47.480;19.354;2023-03-24T10:05:42;7.27;;;6.07;;
44696;SDS011;57264;47.480;19.354;2023-03-24T10:18:41;14.27;;;6.77;;
44696;SDS011;57264;47.480;19.354;2023-03-24T10:21:19;15.93;;;8.10;;
44696;SDS011;57264;47.480;19.354;2023-03-24T10:26:45;25.97;;;7.10;;
44696;SDS011;57264;47.480;19.354;2023-03-24T10:29:29;15.67;;;5.90;;
44696;SDS011;57264;47.480;19.354;2023-03-24T10:34:31;9.00;;;5.80;;
44696;SDS011;57264;47.480;19.354;2023-03-24T10:37:03;14.17;;;5.73;;
44696;SDS011;57264;47.480;19.354;2023-03-24T10:39:29;19.33;;;7.73;;
44696;SDS011;57264;47.480;19.354;2023-03-24T10:41:57;12.17;;;5.50;;
44696;SDS011;57264;47.480;19.354;2023-03-24T10:44:23;11.13;;;5.93;;
44696;SDS011;57264;47.480;19.354;2023-03-24T10:46:52;12.40;;;6.43;;
44696;SDS011;57264;47.480;19.354;2023-03-24T10:49:21;14.93;;;5.23;;
44696;SDS011;57264;47.480;19.354;2023-03-24T10:51:48;8.73;;;4.83;;
44696;SDS011;57264;47.480;19.354;2023-03-24T11:06:34;15.07;;;7.87;;
44696;SDS011;57264;47.480;19.354;2023-03-24T11:09:10;15.93;;;5.73;;
44696;SDS011;57264;47.480;19.354;2023-03-24T11:11:41;16.58;;;5.18;;
44696;SDS011;57264;47.480;19.354;2023-03-24T11:14:18;24.73;;;5.80;;
44696;SDS011;57264;47.480;19.354;2023-03-24T11:16:51;23.20;;;6.50;;
44696;SDS011;57264;47.480;19.354;2023-03-24T11:19:21;15.00;;;4.03;;
44696;SDS011;57264;47.480;19.354;2023-03-24T11:21:56;21.63;;;4.27;;
44696;SDS011;57264;47.480;19.354;2023-03-24T11:24:27;29.52;;;5.15;;
44696;SDS011;57264;47.480;19.354;2023-03-24T11:26:58;11.87;;;3.73;;
44696;SDS011;57264;47.480;19.354;2023-03-24T11:29:26;19.37;;;4.50;;
44696;SDS011;57264;47.480;19.354;2023-03-24T11:31:58;10.00;;;3.80;;
44696;SDS011;57264;47.480;19.354;2023-03-24T11:34:30;10.23;;;3.63;;
44696;SDS011;57264;47.480;19.354;2023-03-24T11:37:02;13.53;;;4.30;;
44696;SDS011;57264;47.480;19.354;2023-03-24T11:39:36;11.37;;;3.80;;
44696;SDS011;57264;47.480;19.354;2023-03-24T11:47:12;11.77;;;3.47;;
44696;SDS011;57264;47.480;19.354;2023-03-24T11:49:50;12.57;;;2.50;;
44696;SDS011;57264;47.480;19.354;2023-03-24T11:52:36;10.17;;;2.27;;
44696;SDS011;57264;47.480;19.354;2023-03-24T11:55:16;9.05;;;3.20;;
44696;SDS011;57264;47.480;19.354;2023-03-24T12:03:16;7.18;;;2.13;;
44696;SDS011;57264;47.480;19.354;2023-03-24T12:09:06;7.23;;;2.97;;
44696;SDS011;57264;47.480;19.354;2023-03-24T12:17:03;6.63;;;2.13;;
44696;SDS011;57264;47.480;19.354;2023-03-24T12:25:46;9.07;;;1.73;;
44696;SDS011;57264;47.480;19.354;2023-03-24T12:28:41;6.50;;;1.83;;
44696;SDS011;57264;47.480;19.354;2023-03-24T12:37:06;6.00;;;1.33;;
44696;SDS011;57264;47.480;19.354;2023-03-24T12:42:53;4.97;;;2.10;;
44696;SDS011;57264;47.480;19.354;2023-03-24T12:45:28;8.40;;;1.97;;
44696;SDS011;57264;47.480;19.354;2023-03-24T12:53:17;6.87;;;1.60;;
44696;SDS011;57264;47.480;19.354;2023-03-24T12:55:58;7.17;;;2.33;;
44696;SDS011;57264;47.480;19.354;2023-03-24T13:04:59;9.70;;;1.87;;
44696;SDS011;57264;47.480;19.354;2023-03-24T13:07:30;13.03;;;1.97;;
44696;SDS011;57264;47.480;19.354;2023-03-24T13:20:25;5.47;;;2.30;;
44696;SDS011;57264;47.480;19.354;2023-03-24T13:22:56;2.70;;;1.40;;
44696;SDS011;57264;47.480;19.354;2023-03-24T13:25:40;5.10;;;1.50;;
44696;SDS011;57264;47.480;19.354;2023-03-24T13:28:17;9.20;;;1.93;;
44696;SDS011;57264;47.480;19.354;2023-03-24T13:30:49;4.33;;;1.50;;
44696;SDS011;57264;47.480;19.354;2023-03-24T13:33:15;4.83;;;1.70;;
44696;SDS011;57264;47.480;19.354;2023-03-24T13:38:50;7.53;;;1.97;;
44696;SDS011;57264;47.480;19.354;2023-03-24T13:41:20;7.63;;;1.93;;
44696;SDS011;57264;47.480;19.354;2023-03-24T13:43:58;7.67;;;1.90;;
44696;SDS011;57264;47.480;19.354;2023-03-24T13:46:24;8.87;;;1.73;;
44696;SDS011;57264;47.480;19.354;2023-03-24T13:48:50;14.47;;;2.03;;
44696;SDS011;57264;47.480;19.354;2023-03-24T13:54:20;5.03;;;1.80;;
44696;SDS011;57264;47.480;19.354;2023-03-24T13:56:53;5.43;;;2.00;;
44696;SDS011;57264;47.480;19.354;2023-03-24T14:02:45;7.87;;;1.70;;
44696;SDS011;57264;47.480;19.354;2023-03-24T14:10:27;7.37;;;2.17;;
44696;SDS011;57264;47.480;19.354;2023-03-24T14:13:32;4.20;;;2.13;;
44696;SDS011;57264;47.480;19.354;2023-03-24T14:15:58;3.60;;;1.67;;
44696;SDS011;57264;47.480;19.354;2023-03-24T14:23:29;3.88;;;2.13;;
44696;SDS011;57264;47.480;19.354;2023-03-24T14:26:13;4.73;;;2.20;;
44696;SDS011;57264;47.480;19.354;2023-03-24T14:29:00;7.63;;;1.87;;
44696;SDS011;57264;47.480;19.354;2023-03-24T14:31:26;4.30;;;1.67;;
44696;SDS011;57264;47.480;19.354;2023-03-24T14:36:36;6.30;;;1.80;;
44696;SDS011;57264;47.480;19.354;2023-03-24T14:41:54;4.60;;;1.70;;
44696;SDS011;57264;47.480;19.354;2023-03-24T14:47:15;4.17;;;1.57;;
44696;SDS011;57264;47.480;19.354;2023-03-24T14:52:53;7.67;;;1.63;;
44696;SDS011;57264;47.480;19.354;2023-03-24T14:55:23;3.03;;;1.50;;
44696;SDS011;57264;47.480;19.354;2023-03-24T14:57:51;4.60;;;1.67;;
44696;SDS011;57264;47.480;19.354;2023-03-24T15:02:46;5.30;;;1.70;;
44696;SDS011;57264;47.480;19.354;2023-03-24T15:08:32;38.33;;;4.40;;
44696;SDS011;57264;47.480;19.354;2023-03-24T15:10:36;71.17;;;4.97;;
44696;SDS011;57264;47.480;19.354;2023-03-24T15:15:52;4.10;;;2.00;;
44696;SDS011;57264;47.480;19.354;2023-03-24T15:18:18;8.87;;;1.87;;
44696;SDS011;57264;47.480;19.354;2023-03-24T15:20:46;3.03;;;1.40;;
44696;SDS011;57264;47.480;19.354;2023-03-24T15:23:17;3.33;;;1.73;;
44696;SDS011;57264;47.480;19.354;2023-03-24T15:25:48;7.40;;;1.60;;
44696;SDS011;57264;47.480;19.354;2023-03-24T15:28:18;5.17;;;1.70;;
44696;SDS011;57264;47.480;19.354;2023-03-24T15:30:49;4.67;;;2.23;;
44696;SDS011;57264;47.480;19.354;2023-03-24T15:33:16;5.23;;;1.50;;
44696;SDS011;57264;47.480;19.354;2023-03-24T15:35:44;2.63;;;1.57;;
44696;SDS011;57264;47.480;19.354;2023-03-24T15:38:17;5.23;;;1.70;;
44696;SDS011;57264;47.480;19.354;2023-03-24T15:40:55;3.50;;;1.43;;
44696;SDS011;57264;47.480;19.354;2023-03-24T15:43:22;21.83;;;2.50;;
44696;SDS011;57264;47.480;19.354;2023-03-24T15:45:51;3.20;;;1.80;;
44696;SDS011;57264;47.480;19.354;2023-03-24T15:51:00;20.60;;;2.53;;
44696;SDS011;57264;47.480;19.354;2023-03-24T15:53:29;6.35;;;1.70;;
44696;SDS011;57264;47.480;19.354;2023-03-24T15:56:19;9.03;;;2.40;;
44696;SDS011;57264;47.480;19.354;2023-03-24T16:01:30;6.93;;;1.80;;
44696;SDS011;57264;47.480;19.354;2023-03-24T16:04:00;23.00;;;3.57;;
44696;SDS011;57264;47.480;19.354;2023-03-24T16:06:35;7.27;;;2.03;;
44696;SDS011;57264;47.480;19.354;2023-03-24T16:09:06;9.87;;;1.77;;
44696;SDS011;57264;47.480;19.354;2023-03-24T16:11:37;24.97;;;3.83;;
44696;SDS011;57264;47.480;19.354;2023-03-24T16:16:56;6.40;;;1.57;;
44696;SDS011;57264;47.480;19.354;2023-03-24T16:19:24;7.85;;;2.55;;
44696;SDS011;57264;47.480;19.354;2023-03-24T16:21:50;9.57;;;2.70;;
44696;SDS011;57264;47.480;19.354;2023-03-24T16:24:16;14.07;;;2.20;;
44696;SDS011;57264;47.480;19.354;2023-03-24T16:26:41;14.50;;;2.27;;
44696;SDS011;57264;47.480;19.354;2023-03-24T16:31:41;6.57;;;2.23;;
44696;SDS011;57264;47.480;19.354;2023-03-24T16:34:08;8.43;;;1.97;;
44696;SDS011;57264;47.480;19.354;2023-03-24T16:36:33;10.23;;;2.67;;
44696;SDS011;57264;47.480;19.354;2023-03-24T16:39:00;15.00;;;3.37;;
44696;SDS011;57264;47.480;19.354;2023-03-24T16:41:27;17.23;;;2.53;;
44696;SDS011;57264;47.480;19.354;2023-03-24T16:43:53;11.47;;;2.40;;
44696;SDS011;57264;47.480;19.354;2023-03-24T16:48:50;10.07;;;2.75;;
44696;SDS011;57264;47.480;19.354;2023-03-24T16:51:16;21.00;;;3.17;;
44696;SDS011;57264;47.480;19.354;2023-03-24T16:53:43;31.43;;;4.93;;
44696;SDS011;57264;47.480;19.354;2023-03-24T16:56:14;32.83;;;4.13;;
44696;SDS011;57264;47.480;19.354;2023-03-24T16:58:42;14.37;;;3.03;;
44696;SDS011;57264;47.480;19.354;2023-03-24T17:01:42;11.80;;;3.27;;
44696;SDS011;57264;47.480;19.354;2023-03-24T17:04:03;5.70;;;2.80;;
44696;SDS011;57264;47.480;19.354;2023-03-24T17:06:36;8.57;;;3.07;;
44696;SDS011;57264;47.480;19.354;2023-03-24T17:09:05;6.67;;;3.10;;
44696;SDS011;57264;47.480;19.354;2023-03-24T17:11:36;6.27;;;3.07;;
44696;SDS011;57264;47.480;19.354;2023-03-24T17:14:04;6.50;;;3.03;;
44696;SDS011;57264;47.480;19.354;2023-03-24T17:16:33;12.80;;;3.47;;
44696;SDS011;57264;47.480;19.354;2023-03-24T17:19:04;18.07;;;3.43;;
44696;SDS011;57264;47.480;19.354;2023-03-24T17:21:31;24.40;;;4.37;;
44696;SDS011;57264;47.480;19.354;2023-03-24T17:23:59;12.80;;;3.80;;
44696;SDS011;57264;47.480;19.354;2023-03-24T17:26:31;12.37;;;2.90;;
44696;SDS011;57264;47.480;19.354;2023-03-24T17:28:57;11.80;;;3.10;;
44696;SDS011;57264;47.480;19.354;2023-03-24T17:31:22;8.07;;;3.17;;
44696;SDS011;57264;47.480;19.354;2023-03-24T17:33:48;12.37;;;4.60;;
44696;SDS011;57264;47.480;19.354;2023-03-24T17:36:14;9.23;;;2.83;;
44696;SDS011;57264;47.480;19.354;2023-03-24T17:38:41;7.43;;;2.93;;
44696;SDS011;57264;47.480;19.354;2023-03-24T17:41:11;4.37;;;2.93;;
44696;SDS011;57264;47.480;19.354;2023-03-24T17:43:36;12.50;;;3.57;;
44696;SDS011;57264;47.480;19.354;2023-03-24T17:46:02;9.97;;;3.40;;
44696;SDS011;57264;47.480;19.354;2023-03-24T17:48:28;13.63;;;3.90;;
44696;SDS011;57264;47.480;19.354;2023-03-24T17:50:54;6.80;;;3.03;;
44696;SDS011;57264;47.480;19.354;2023-03-24T17:53:21;6.33;;;2.97;;
44696;SDS011;57264;47.480;19.354;2023-03-24T17:55:51;7.97;;;2.70;;
44696;SDS011;57264;47.480;19.354;2023-03-24T17:58:18;9.00;;;3.10;;
44696;SDS011;57264;47.480;19.354;2023-03-24T18:00:44;11.07;;;3.20;;
44696;SDS011;57264;47.480;19.354;2023-03-24T18:03:10;16.07;;;3.70;;